Latest Weather Observations for Albany Airport

IDW60801

Issued at 5:53 pm WST Saturday 25 May 2019 (issued every 10 minutes, with the page automatically refreshed every 10 minutes)

About weather observations | Map of weather stations | Latest weather observations for WA | Other Formats
Station Details ID: 009999 Name: ALBANY AIRPORT Lat: -34.94 Lon: 117.82 Height: 68.4 m
Data from the previous 72 hours. | See also: Recent months at Albany Airport
Date/Time
WST
Temp
°C
App
Temp
°C
Dew
Point
°C
Rel
Hum
%
Delta-T
°C
Wind Press
QNH
hPa
Press
MSL
hPa
Rain since
9am
mm
Dir  Spd
km/h
Gust
km/h
Spd
kts
Gust
kts
25/05:30pm 12.9 11.3 8.6 75 2.2 SSW 7 11 4 6 1025.8 1025.7 0.0
25/05:00pm 13.5 11.4 8.4 71 2.5 S 9 13 5 7 1025.6 1025.5 0.0
25/04:30pm 14.4 12.2 9.2 71 2.7 SW 11 17 6 9 1025.8 1025.7 0.0
25/04:00pm 14.7 11.4 8.2 65 3.2 SW 15 20 8 11 1025.7 1025.6 0.0
25/03:30pm 14.9 12.6 9.1 68 3.0 SSW 11 17 6 9 1025.5 1025.4 0.0
25/03:00pm 15.1 12.1 9.2 68 3.0 SSW 15 19 8 10 1025.4 1025.3 0.0
25/02:30pm 15.5 13.3 9.4 67 3.2 SSW 11 19 6 10 1025.2 1025.1 0.0
25/02:00pm 15.2 12.7 9.6 69 2.9 SSW 13 17 7 9 1025.4 1025.3 0.0
25/01:30pm 15.3 12.3 9.4 68 3.1 SW 15 19 8 10 1025.4 1025.3 0.0
25/01:00pm 15.6 13.0 9.5 67 3.1 SW 13 17 7 9 1025.5 1025.4 0.0
25/12:30pm 15.5 13.1 10.1 70 2.8 WSW 13 19 7 10 1025.8 1025.7 0.0
25/12:00pm 15.5 13.5 10.1 70 2.8 WSW 11 15 6 8 1026.0 1025.9 0.0
25/11:30am 15.2 12.8 10.2 72 2.6 WSW 13 17 7 9 1026.3 1026.2 0.0
25/11:00am 15.0 13.5 11.8 81 1.7 WSW 11 15 6 8 1026.6 1026.5 0.0
25/10:30am 15.3 14.3 12.2 82 1.7 SW 9 15 5 8 1026.5 1026.4 0.0
25/10:00am 14.5 14.1 12.5 88 1.1 NW 6 7 3 4 1026.6 1026.5 0.0
25/09:30am 12.9 11.2 12.4 97 0.3 WNW 13 17 7 9 1026.7 1026.6 0.0
25/09:00am 12.7 11.4 12.5 99 0.1 WNW 11 13 6 7 1026.7 1026.6 2.2
25/08:58am 12.5 11.1 12.3 99 0.1 WNW 11 13 6 7 1026.7 1026.6 2.2
25/08:34am 11.8 9.8 11.6 99 0.1 WNW 13 15 7 8 1026.6 1026.5 2.2
25/08:30am 11.7 9.7 11.5 99 0.1 WNW 13 15 7 8 1026.6 1026.5 2.2
25/08:00am 11.3 10.3 11.1 99 0.1 WNW 7 11 4 6 1026.2 1026.1 2.2
25/07:30am 10.8 9.9 10.6 99 0.1 W 6 7 3 4 1025.8 1025.7 2.2
25/07:00am 10.5 10.6 10.3 99 0.1 CALM 0 0 0 0 1025.5 1025.4 2.2
25/06:30am 10.8 9.3 10.6 99 0.1 WNW 9 13 5 7 1025.4 1025.3 2.2
25/06:00am 10.8 9.9 10.6 99 0.1 WNW 6 9 3 5 1025.1 1025.0 2.2
25/05:30am 10.8 9.9 10.6 99 0.1 WNW 6 7 3 4 1024.9 1024.8 2.2
25/05:00am 10.8 8.9 10.6 99 0.1 WNW 11 13 6 7 1024.7 1024.6 2.2
25/04:30am 10.8 8.9 10.6 99 0.1 WNW 11 13 6 7 1024.5 1024.4 2.2
25/04:00am 10.6 8.7 10.4 99 0.1 NW 11 13 6 7 1024.5 1024.4 2.2
25/03:30am 11.1 8.9 10.9 99 0.1 NW 13 15 7 8 1024.5 1024.4 2.2
25/03:00am 10.6 9.1 10.4 99 0.1 WNW 9 9 5 5 1024.6 1024.5 2.2
25/02:30am 11.1 9.7 10.9 99 0.1 WNW 9 11 5 6 1024.5 1024.4 2.2
25/02:00am 11.3 9.2 11.1 99 0.1 WNW 13 15 7 8 1024.4 1024.3 2.2
25/01:30am 11.0 8.8 10.8 99 0.1 NW 13 15 7 8 1024.3 1024.2 2.0
25/01:17am 11.5 9.8 11.3 99 0.1 WNW 11 13 6 7 1024.2 1024.1 2.0
25/01:02am 11.7 10.5 11.5 99 0.1 W 9 13 5 7 1024.2 1024.1 2.0
25/01:00am 11.6 10.3 11.4 99 0.1 W 9 13 5 7 1024.2 1024.1 2.0
25/12:30am 10.6 8.3 10.4 99 0.1 NW 13 15 7 8 1024.2 1024.1 2.0
25/12:00am 10.5 8.2 10.3 99 0.1 NW 13 15 7 8 1024.1 1024.0 2.0
 
Date/Time
WST
Temp
°C
App
Temp
°C
Dew
Point
°C
Rel
Hum
%
Delta-T
°C
Wind Press
QNH
hPa
Press
MSL
hPa
Rain since
9am
mm
Dir  Spd
km/h
Gust
km/h
Spd
kts
Gust
kts
24/11:30pm 10.5 8.5 10.3 99 0.1 WNW 11 11 6 6 1023.9 1023.8 2.0
24/11:00pm 10.9 9.1 10.7 99 0.1 WNW 11 11 6 6 1024.0 1023.9 1.8
24/10:30pm 12.3 11.2 12.1 99 0.1 W 9 13 5 7 1024.0 1023.9 1.8
24/10:00pm 12.1 10.6 11.9 99 0.1 NW 11 13 6 7 1024.1 1024.0 1.8
24/09:30pm 12.8 11.1 12.6 99 0.1 WNW 13 17 7 9 1024.0 1023.9 1.8
24/09:00pm 12.9 11.7 12.7 99 0.1 WNW 11 13 6 7 1024.0 1023.9 1.6
24/08:30pm 12.9 11.2 12.6 98 0.2 W 13 15 7 8 1023.8 1023.7 1.6
24/08:04pm 12.9 11.6 12.6 98 0.2 WNW 11 13 6 7 1023.6 1023.5 1.6
24/08:00pm 12.9 11.6 12.6 98 0.2 WNW 11 15 6 8 1023.5 1023.4 1.6
24/07:49pm 13.2 11.6 12.9 98 0.2 W 13 17 7 9 1023.6 1023.5 1.6
24/07:41pm 13.2 11.6 12.9 98 0.2 W 13 17 7 9 1023.5 1023.4 1.6
24/07:39pm 13.2 11.6 12.9 98 0.2 W 13 17 7 9 1023.5 1023.4 1.6
24/07:30pm 13.2 10.8 12.7 97 0.3 W 17 22 9 12 1023.4 1023.3 1.6
24/07:13pm 13.1 10.3 12.5 96 0.3 W 19 28 10 15 1023.3 1023.2 1.4
24/07:01pm 13.2 10.3 12.4 95 0.4 W 19 24 10 13 1023.1 1023.0 0.6
24/07:00pm 13.2 10.3 12.3 94 0.5 W 19 24 10 13 1023.1 1023.0 0.6
24/06:36pm 13.1 11.0 12.3 95 0.4 W 15 22 8 12 1022.7 1022.7 0.6
24/06:30pm 13.2 10.7 12.4 95 0.4 W 17 24 9 13 1022.6 1022.6 0.6
24/06:08pm 13.8 10.7 12.2 90 0.9 W 20 33 11 18 1022.5 1022.5 0.4
24/06:00pm 14.5 12.0 12.2 86 1.2 W 17 20 9 11 1022.5 1022.5 0.4
24/05:30pm 14.5 11.3 12.0 85 1.4 W 20 28 11 15 1022.2 1022.2 0.4
24/05:13pm 14.6 10.9 11.6 82 1.6 W 22 32 12 17 1022.1 1022.1 0.4
24/05:00pm 14.6 10.6 11.7 83 1.6 W 24 35 13 19 1022.3 1022.3 0.2
24/04:57pm 14.8 10.7 11.6 81 1.7 W 24 35 13 19 1022.3 1022.3 0.2
24/04:30pm 16.0 12.7 11.0 72 2.7 WSW 19 28 10 15 1021.9 1021.9 0.2
24/04:00pm 16.2 12.4 11.2 72 2.7 WSW 22 33 12 18 1021.8 1021.8 0.2
24/03:30pm 17.2 13.1 11.5 69 3.1 W 24 35 13 19 1021.5 1021.5 0.2
24/03:00pm 17.0 13.6 12.5 75 2.5 WSW 22 33 12 18 1021.3 1021.3 0.2
24/02:30pm 15.7 13.0 13.5 87 1.2 WSW 20 30 11 16 1021.2 1021.2 0.2
24/02:00pm 17.4 13.4 11.9 70 3.0 WSW 24 35 13 19 1021.0 1021.0 0.0
24/01:30pm 17.5 13.9 11.8 69 3.1 WSW 22 30 12 16 1020.9 1020.9 0.0
24/01:00pm 16.9 13.4 12.2 74 2.6 W 22 30 12 16 1021.0 1021.0 0.0
24/12:30pm 18.1 12.9 10.2 60 4.2 W 28 35 15 19 1021.0 1021.0 0.0
24/12:00pm 18.9 13.2 11.0 60 4.3 W 32 48 17 26 1021.5 1021.5 0.0
24/11:30am 18.0 13.7 12.2 69 3.2 W 26 37 14 20 1021.8 1021.8 0.0
24/11:00am 17.6 13.8 12.5 72 2.8 W 24 33 13 18 1021.9 1021.9 0.0
24/10:30am 16.9 13.9 12.6 76 2.4 W 20 28 11 15 1022.0 1022.0 0.0
24/10:00am 15.9 13.0 13.0 83 1.6 WNW 20 26 11 14 1022.2 1022.2 0.0
24/09:30am 15.8 13.2 13.3 85 1.4 WNW 19 24 10 13 1022.1 1022.1 0.0
24/09:00am 15.3 13.2 13.5 89 1.0 WNW 17 20 9 11 1022.0 1022.0 0.2
24/08:30am 13.9 11.9 12.8 93 0.6 WNW 15 19 8 10 1022.1 1022.1 0.2
24/08:00am 13.0 11.6 12.2 95 0.4 W 11 15 6 8 1021.6 1021.6 0.2
24/07:30am 12.2 9.9 11.6 96 0.3 WNW 15 20 8 11 1021.5 1021.5 0.2
24/07:00am 11.7 9.6 11.2 97 0.3 WNW 13 17 7 9 1021.4 1021.4 0.2
24/06:30am 11.8 9.7 11.2 96 0.3 NW 13 20 7 11 1021.2 1021.2 0.2
24/06:00am 12.2 10.2 11.6 96 0.3 NW 13 17 7 9 1021.1 1021.1 0.2
24/05:30am 12.0 10.0 11.4 96 0.3 NW 13 17 7 9 1021.0 1021.0 0.2
24/05:00am 12.6 10.3 11.8 95 0.4 WNW 15 19 8 10 1021.0 1021.0 0.2
24/04:30am 13.0 10.4 12.1 94 0.5 WNW 17 22 9 12 1021.1 1021.1 0.2
24/04:00am 12.8 10.2 11.9 94 0.5 WNW 17 19 9 10 1021.0 1021.0 0.2
24/03:30am 13.0 10.4 12.1 94 0.5 WNW 17 22 9 12 1021.0 1021.0 0.2
24/03:00am 13.1 10.2 12.2 94 0.5 WNW 19 24 10 13 1020.9 1020.9 0.2
24/02:30am 12.8 10.1 11.7 93 0.6 WNW 17 20 9 11 1020.7 1020.7 0.2
24/02:00am 13.0 10.7 11.7 92 0.7 WNW 15 20 8 11 1020.9 1020.9 0.2
24/01:30am 13.0 10.7 11.7 92 0.7 NW 15 19 8 10 1020.9 1020.9 0.2
24/01:00am 13.5 11.3 12.1 91 0.8 WNW 15 20 8 11 1021.1 1021.1 0.2
24/12:30am 13.7 11.6 12.4 92 0.7 WNW 15 19 8 10 1021.1 1021.1 0.2
24/12:00am 13.3 11.1 12.2 93 0.6 WNW 15 20 8 11 1021.2 1021.2 0.2
 
Date/Time
WST
Temp
°C
App
Temp
°C
Dew
Point
°C
Rel
Hum
%
Delta-T
°C
Wind Press
QNH
hPa
Press
MSL
hPa
Rain since
9am
mm
Dir  Spd
km/h
Gust
km/h
Spd
kts
Gust
kts
23/11:30pm 13.1 10.6 12.3 95 0.4 WNW 17 20 9 11 1021.2 1021.2 0.2
23/11:00pm 13.3 10.9 12.5 95 0.4 NW 17 22 9 12 1021.4 1021.4 0.2
23/10:44pm 13.4 10.4 12.6 95 0.4 WNW 20 28 11 15 1021.5 1021.5 0.0
23/10:30pm 13.7 10.4 12.8 94 0.5 WNW 22 28 12 15 1021.5 1021.5 0.0
23/10:18pm 14.0 11.4 12.0 88 1.1 WNW 17 33 9 18 1022.0 1022.0 0.0
23/10:00pm 14.2 12.3 11.9 86 1.2 WNW 13 17 7 9 1021.9 1021.9 0.0
23/09:30pm 13.5 12.0 11.9 90 0.9 WNW 11 15 6 8 1021.9 1021.9 0.0
23/09:00pm 13.3 11.7 11.5 89 1.0 WNW 11 13 6 7 1021.9 1021.9 0.0
23/08:30pm 13.4 11.6 12.1 92 0.7 NW 13 17 7 9 1021.7 1021.7 0.0
23/08:00pm 12.8 10.9 11.7 93 0.6 NW 13 15 7 8 1021.7 1021.7 0.0
23/07:30pm 13.3 11.8 11.9 91 0.8 WNW 11 13 6 7 1021.7 1021.7 0.0
23/07:00pm 13.6 12.5 12.0 90 0.9 WNW 9 11 5 6 1021.5 1021.5 0.0
23/06:30pm 14.0 12.8 11.7 86 1.2 W 9 13 5 7 1021.3 1021.3 0.0
23/06:00pm 15.8 13.8 12.7 82 1.7 W 15 17 8 9 1021.1 1021.1 0.0
23/05:30pm 16.7 15.1 12.8 78 2.2 WSW 13 19 7 10 1020.9 1020.9 0.0
23/05:00pm 17.1 15.1 12.6 75 2.5 W 15 19 8 10 1020.8 1020.8 0.0
23/04:30pm 17.5 14.8 13.0 75 2.5 W 19 26 10 14 1020.9 1020.9 0.0
23/04:00pm 17.6 14.1 13.5 77 2.3 WSW 24 33 13 18 1020.8 1020.8 0.0
23/03:30pm 18.9 15.0 12.2 65 3.7 W 24 35 13 19 1020.5 1020.5 0.0
23/03:00pm 18.8 16.3 14.1 74 2.7 WSW 20 28 11 15 1020.5 1020.5 0.0
23/02:30pm 18.5 16.0 14.2 76 2.5 SW 20 28 11 15 1020.4 1020.4 0.0
23/02:00pm 17.0 14.6 14.3 84 1.5 SW 20 30 11 16 1020.5 1020.5 0.0
23/01:30pm 19.0 14.8 12.5 66 3.6 W 26 39 14 21 1020.3 1020.3 0.0
23/01:00pm 19.8 16.2 13.0 65 3.9 WNW 24 35 13 19 1020.5 1020.5 0.0
23/12:30pm 18.9 15.6 12.9 68 3.4 W 22 30 12 16 1021.0 1021.0 0.0
23/12:00pm 18.6 15.7 14.1 75 2.6 W 22 30 12 16 1021.4 1021.4 0.0
23/11:30am 15.9 12.4 13.4 85 1.4 WSW 24 35 13 19 1021.9 1021.9 0.0
23/11:00am 18.6 15.9 12.8 69 3.3 W 19 28 10 15 1021.8 1021.8 0.0
23/10:30am 17.9 14.7 13.0 73 2.8 W 22 30 12 16 1022.0 1022.0 0.0
23/10:00am 16.5 13.5 12.5 77 2.2 W 20 32 11 17 1022.2 1022.2 0.0
23/09:30am 15.5 11.7 12.3 81 1.8 WNW 24 30 13 16 1022.1 1022.1 0.0
23/09:00am 15.1 12.0 12.2 83 1.6 WNW 20 26 11 14 1022.0 1022.0 0.0
23/08:30am 14.1 11.4 11.8 86 1.2 WNW 17 24 9 13 1021.7 1021.7 0.0
23/08:00am 13.1 10.3 11.3 89 1.0 NW 17 20 9 11 1021.4 1021.4 0.0
23/07:30am 11.8 9.2 10.7 93 0.6 NW 15 20 8 11 1021.4 1021.4 0.0
23/07:00am 11.4 8.4 10.5 94 0.5 WNW 17 20 9 11 1021.0 1021.0 0.0
23/06:30am 11.0 8.3 10.2 95 0.4 WNW 15 19 8 10 1020.7 1020.7 0.0
23/06:00am 11.2 8.1 10.3 94 0.5 NW 17 20 9 11 1020.5 1020.5 0.0
23/05:30am 11.6 8.9 10.3 92 0.7 NW 15 17 8 9 1020.4 1020.4 0.0
23/05:00am 11.7 9.4 10.4 92 0.7 NW 13 19 7 10 1020.2 1020.2 0.0
23/04:30am 11.7 9.4 10.3 91 0.7 NW 13 15 7 8 1020.1 1020.1 0.0
23/04:00am 12.8 10.3 10.9 88 1.0 NW 15 19 8 10 1020.0 1020.0 0.0
23/03:30am 12.5 10.3 10.7 89 0.9 WNW 13 17 7 9 1020.1 1020.1 0.0
23/03:00am 12.0 10.5 10.6 91 0.7 WNW 9 11 5 6 1020.4 1020.4 0.0
23/02:30am 12.1 9.8 10.5 90 0.8 WNW 13 15 7 8 1020.3 1020.3 0.0
23/02:00am 12.6 10.4 10.8 89 0.9 NW 13 15 7 8 1020.3 1020.3 0.0
23/01:30am 13.1 10.6 11.2 88 1.0 NW 15 19 8 10 1020.4 1020.4 0.0
23/01:00am 13.4 11.3 11.3 87 1.1 NW 13 17 7 9 1020.5 1020.5 0.0
23/12:30am 13.7 11.7 11.4 86 1.2 WNW 13 19 7 10 1020.9 1020.9 0.0
23/12:00am 13.3 11.2 11.0 86 1.2 WNW 13 17 7 9 1020.8 1020.8 0.0
 
Date/Time
WST
Temp
°C
App
Temp
°C
Dew
Point
°C
Rel
Hum
%
Delta-T
°C
Wind Press
QNH
hPa
Press
MSL
hPa
Rain since
9am
mm
Dir  Spd
km/h
Gust
km/h
Spd
kts
Gust
kts
22/11:30pm 12.8 10.9 10.5 86 1.2 WNW 11 15 6 8 1021.1 1021.1 0.0
22/11:00pm 12.7 10.8 10.4 86 1.2 NW 11 13 6 7 1020.8 1020.8 0.0
22/10:30pm 12.9 11.1 11.0 88 1.0 NW 11 13 6 7 1021.1 1021.1 0.0
22/10:00pm 12.5 10.8 11.1 91 0.7 NW 11 15 6 8 1021.0 1021.0 0.0
22/09:30pm 12.3 10.6 11.2 93 0.6 NW 11 11 6 6 1021.1 1021.1 0.0
22/09:00pm 12.3 11.0 11.4 94 0.5 W 9 11 5 6 1021.2 1021.2 0.0
22/08:30pm 12.4 11.5 11.5 94 0.5 WSW 7 9 4 5 1020.9 1020.9 0.0
22/08:00pm 13.0 12.2 11.7 92 0.7 N 7 7 4 4 1020.6 1020.6 0.0
22/07:30pm 13.4 12.3 12.0 91 0.8 N 9 9 5 5 1020.5 1020.5 0.0
22/07:00pm 13.9 13.4 12.5 91 0.8 N 7 9 4 5 1020.5 1020.5 0.0
22/06:30pm 14.4 15.1 12.3 87 1.1 CALM 0 0 0 0 1020.2 1020.2 0.0
22/06:00pm 14.9 15.6 12.2 84 1.5 CALM 0 0 0 0 1020.0 1020.0 0.0

Other formats

Comma delimited format used in spreadsheet applications
http://www.bom.gov.au/fwo/IDW60801/IDW60801.94802.axf

JavaScript Object Notation format (JSON) in row-major order
http://www.bom.gov.au/fwo/IDW60801/IDW60801.94802.json

Data quality

Most of these data are generated automatically and are frequently updated. Quality checks on data are not normally performed. It is possible for incorrect values to appear. Refer to information at About Latest Weather Observations and please check the disclaimer before using these data.